sensor_id;sensor_type;location;lat;lon;timestamp;P1;durP1;ratioP1;P2;durP2;ratioP2
13032;SDS011;6583;42.632;23.298;2023-04-01T00:01:26;6.63;;;2.43;;
13032;SDS011;6583;42.632;23.298;2023-04-01T00:03:53;7.03;;;2.57;;
13032;SDS011;6583;42.632;23.298;2023-04-01T00:06:21;5.17;;;2.33;;
13032;SDS011;6583;42.632;23.298;2023-04-01T00:08:48;6.13;;;2.60;;
13032;SDS011;6583;42.632;23.298;2023-04-01T00:11:15;5.93;;;2.83;;
13032;SDS011;6583;42.632;23.298;2023-04-01T00:13:44;6.10;;;2.37;;
13032;SDS011;6583;42.632;23.298;2023-04-01T00:16:10;5.53;;;2.70;;
13032;SDS011;6583;42.632;23.298;2023-04-01T00:18:38;8.13;;;2.50;;
13032;SDS011;6583;42.632;23.298;2023-04-01T00:21:05;4.47;;;2.70;;
13032;SDS011;6583;42.632;23.298;2023-04-01T00:23:32;5.43;;;2.53;;
13032;SDS011;6583;42.632;23.298;2023-04-01T00:25:58;4.90;;;2.77;;
13032;SDS011;6583;42.632;23.298;2023-04-01T00:28:25;6.07;;;3.37;;
13032;SDS011;6583;42.632;23.298;2023-04-01T00:30:54;7.57;;;5.03;;
13032;SDS011;6583;42.632;23.298;2023-04-01T00:33:20;7.27;;;4.63;;
13032;SDS011;6583;42.632;23.298;2023-04-01T00:35:47;7.43;;;4.50;;
13032;SDS011;6583;42.632;23.298;2023-04-01T00:38:14;7.47;;;4.27;;
13032;SDS011;6583;42.632;23.298;2023-04-01T00:40:42;8.43;;;4.50;;
13032;SDS011;6583;42.632;23.298;2023-04-01T00:43:11;6.70;;;4.30;;
13032;SDS011;6583;42.632;23.298;2023-04-01T00:45:40;7.10;;;4.63;;
13032;SDS011;6583;42.632;23.298;2023-04-01T00:48:10;9.63;;;5.00;;
13032;SDS011;6583;42.632;23.298;2023-04-01T00:50:41;9.13;;;5.07;;
13032;SDS011;6583;42.632;23.298;2023-04-01T00:53:10;10.90;;;5.10;;
13032;SDS011;6583;42.632;23.298;2023-04-01T00:55:39;11.27;;;5.27;;
13032;SDS011;6583;42.632;23.298;2023-04-01T00:58:11;9.10;;;5.20;;
13032;SDS011;6583;42.632;23.298;2023-04-01T01:00:42;7.63;;;5.07;;
13032;SDS011;6583;42.632;23.298;2023-04-01T01:03:10;8.20;;;5.27;;
13032;SDS011;6583;42.632;23.298;2023-04-01T01:05:43;9.07;;;5.77;;
13032;SDS011;6583;42.632;23.298;2023-04-01T01:08:40;12.47;;;5.90;;
13032;SDS011;6583;42.632;23.298;2023-04-01T01:11:19;6.30;;;4.53;;
13032;SDS011;6583;42.632;23.298;2023-04-01T01:13:53;7.40;;;4.17;;
13032;SDS011;6583;42.632;23.298;2023-04-01T01:16:28;7.17;;;4.77;;
13032;SDS011;6583;42.632;23.298;2023-04-01T01:19:01;9.77;;;5.63;;
13032;SDS011;6583;42.632;23.298;2023-04-01T01:21:53;6.37;;;4.90;;
13032;SDS011;6583;42.632;23.298;2023-04-01T01:24:41;7.07;;;4.63;;
13032;SDS011;6583;42.632;23.298;2023-04-01T01:27:16;8.53;;;4.73;;
13032;SDS011;6583;42.632;23.298;2023-04-01T01:29:48;7.43;;;4.63;;
13032;SDS011;6583;42.632;23.298;2023-04-01T01:32:47;7.13;;;4.33;;
13032;SDS011;6583;42.632;23.298;2023-04-01T01:35:38;6.93;;;4.27;;
13032;SDS011;6583;42.632;23.298;2023-04-01T01:38:10;5.53;;;3.90;;
13032;SDS011;6583;42.632;23.298;2023-04-01T01:40:42;5.43;;;3.83;;
13032;SDS011;6583;42.632;23.298;2023-04-01T01:43:12;8.17;;;4.17;;
13032;SDS011;6583;42.632;23.298;2023-04-01T01:45:44;5.80;;;4.10;;
13032;SDS011;6583;42.632;23.298;2023-04-01T01:48:15;6.33;;;3.30;;
13032;SDS011;6583;42.632;23.298;2023-04-01T01:50:45;7.87;;;3.27;;
13032;SDS011;6583;42.632;23.298;2023-04-01T01:53:14;5.23;;;2.93;;
13032;SDS011;6583;42.632;23.298;2023-04-01T01:55:42;4.80;;;2.80;;
13032;SDS011;6583;42.632;23.298;2023-04-01T01:58:11;8.50;;;2.87;;
13032;SDS011;6583;42.632;23.298;2023-04-01T02:00:43;6.10;;;3.00;;
13032;SDS011;6583;42.632;23.298;2023-04-01T02:03:14;7.87;;;4.10;;
13032;SDS011;6583;42.632;23.298;2023-04-01T02:05:44;6.60;;;3.70;;
13032;SDS011;6583;42.632;23.298;2023-04-01T02:08:12;6.73;;;4.20;;
13032;SDS011;6583;42.632;23.298;2023-04-01T02:10:43;6.57;;;3.27;;
13032;SDS011;6583;42.632;23.298;2023-04-01T02:13:18;5.27;;;3.20;;
13032;SDS011;6583;42.632;23.298;2023-04-01T02:15:50;5.60;;;3.57;;
13032;SDS011;6583;42.632;23.298;2023-04-01T02:18:21;5.77;;;2.77;;
13032;SDS011;6583;42.632;23.298;2023-04-01T02:20:50;5.87;;;3.70;;
13032;SDS011;6583;42.632;23.298;2023-04-01T02:23:18;6.97;;;3.73;;
13032;SDS011;6583;42.632;23.298;2023-04-01T02:25:45;7.43;;;3.90;;
13032;SDS011;6583;42.632;23.298;2023-04-01T02:28:13;8.03;;;4.60;;
13032;SDS011;6583;42.632;23.298;2023-04-01T02:30:44;6.90;;;3.60;;
13032;SDS011;6583;42.632;23.298;2023-04-01T02:33:14;8.03;;;3.80;;
13032;SDS011;6583;42.632;23.298;2023-04-01T02:35:41;9.07;;;5.40;;
13032;SDS011;6583;42.632;23.298;2023-04-01T02:38:09;6.73;;;4.30;;
13032;SDS011;6583;42.632;23.298;2023-04-01T02:40:43;8.40;;;4.63;;
13032;SDS011;6583;42.632;23.298;2023-04-01T02:43:11;9.67;;;5.00;;
13032;SDS011;6583;42.632;23.298;2023-04-01T02:45:38;8.63;;;4.57;;
13032;SDS011;6583;42.632;23.298;2023-04-01T02:48:05;7.67;;;4.10;;
13032;SDS011;6583;42.632;23.298;2023-04-01T02:50:32;7.63;;;3.77;;
13032;SDS011;6583;42.632;23.298;2023-04-01T02:52:58;6.37;;;3.97;;
13032;SDS011;6583;42.632;23.298;2023-04-01T02:55:26;6.63;;;4.10;;
13032;SDS011;6583;42.632;23.298;2023-04-01T02:57:53;7.23;;;3.87;;
13032;SDS011;6583;42.632;23.298;2023-04-01T03:00:20;7.53;;;4.33;;
13032;SDS011;6583;42.632;23.298;2023-04-01T03:02:46;6.57;;;4.70;;
13032;SDS011;6583;42.632;23.298;2023-04-01T03:05:13;7.80;;;5.30;;
13032;SDS011;6583;42.632;23.298;2023-04-01T03:07:40;7.90;;;4.27;;
13032;SDS011;6583;42.632;23.298;2023-04-01T03:10:07;5.57;;;3.00;;
13032;SDS011;6583;42.632;23.298;2023-04-01T03:12:36;5.40;;;3.43;;
13032;SDS011;6583;42.632;23.298;2023-04-01T03:15:03;5.40;;;3.53;;
13032;SDS011;6583;42.632;23.298;2023-04-01T03:17:30;6.37;;;3.40;;
13032;SDS011;6583;42.632;23.298;2023-04-01T03:19:57;7.00;;;3.90;;
13032;SDS011;6583;42.632;23.298;2023-04-01T03:22:24;6.10;;;3.70;;
13032;SDS011;6583;42.632;23.298;2023-04-01T03:24:50;5.30;;;3.33;;
13032;SDS011;6583;42.632;23.298;2023-04-01T03:27:17;6.83;;;4.20;;
13032;SDS011;6583;42.632;23.298;2023-04-01T03:29:45;8.30;;;3.93;;
13032;SDS011;6583;42.632;23.298;2023-04-01T03:32:12;9.17;;;4.00;;
13032;SDS011;6583;42.632;23.298;2023-04-01T03:34:39;7.40;;;4.23;;
13032;SDS011;6583;42.632;23.298;2023-04-01T03:37:05;7.43;;;4.23;;
13032;SDS011;6583;42.632;23.298;2023-04-01T03:39:32;7.37;;;4.37;;
13032;SDS011;6583;42.632;23.298;2023-04-01T03:42:00;6.83;;;3.70;;
13032;SDS011;6583;42.632;23.298;2023-04-01T03:44:29;6.13;;;3.43;;
13032;SDS011;6583;42.632;23.298;2023-04-01T03:46:58;6.27;;;3.67;;
13032;SDS011;6583;42.632;23.298;2023-04-01T03:49:25;6.73;;;3.80;;
13032;SDS011;6583;42.632;23.298;2023-04-01T03:51:52;7.00;;;3.80;;
13032;SDS011;6583;42.632;23.298;2023-04-01T03:54:18;7.43;;;3.43;;
13032;SDS011;6583;42.632;23.298;2023-04-01T03:56:46;5.20;;;3.40;;
13032;SDS011;6583;42.632;23.298;2023-04-01T03:59:12;7.07;;;3.40;;
13032;SDS011;6583;42.632;23.298;2023-04-01T04:01:40;7.10;;;2.90;;
13032;SDS011;6583;42.632;23.298;2023-04-01T04:04:10;7.63;;;2.50;;
13032;SDS011;6583;42.632;23.298;2023-04-01T04:06:37;4.60;;;2.77;;
13032;SDS011;6583;42.632;23.298;2023-04-01T04:09:04;4.57;;;2.83;;
13032;SDS011;6583;42.632;23.298;2023-04-01T04:11:31;9.87;;;5.80;;
13032;SDS011;6583;42.632;23.298;2023-04-01T04:13:58;7.10;;;4.00;;
13032;SDS011;6583;42.632;23.298;2023-04-01T04:16:24;4.97;;;2.93;;
13032;SDS011;6583;42.632;23.298;2023-04-01T04:18:51;5.33;;;2.07;;
13032;SDS011;6583;42.632;23.298;2023-04-01T04:21:19;5.87;;;2.30;;
13032;SDS011;6583;42.632;23.298;2023-04-01T04:23:46;7.93;;;1.70;;
13032;SDS011;6583;42.632;23.298;2023-04-01T04:26:13;3.53;;;1.43;;
13032;SDS011;6583;42.632;23.298;2023-04-01T04:28:41;3.77;;;1.30;;
13032;SDS011;6583;42.632;23.298;2023-04-01T04:31:08;3.33;;;1.70;;
13032;SDS011;6583;42.632;23.298;2023-04-01T04:33:35;3.57;;;1.80;;
13032;SDS011;6583;42.632;23.298;2023-04-01T04:36:02;4.97;;;2.10;;
13032;SDS011;6583;42.632;23.298;2023-04-01T04:38:31;5.37;;;2.43;;
13032;SDS011;6583;42.632;23.298;2023-04-01T04:40:58;5.40;;;2.37;;
13032;SDS011;6583;42.632;23.298;2023-04-01T04:43:24;4.60;;;2.37;;
13032;SDS011;6583;42.632;23.298;2023-04-01T04:45:51;5.27;;;2.60;;
13032;SDS011;6583;42.632;23.298;2023-04-01T04:48:18;4.47;;;2.30;;
13032;SDS011;6583;42.632;23.298;2023-04-01T04:50:45;6.80;;;3.50;;
13032;SDS011;6583;42.632;23.298;2023-04-01T04:53:14;9.93;;;4.03;;
13032;SDS011;6583;42.632;23.298;2023-04-01T04:55:44;8.60;;;3.90;;
13032;SDS011;6583;42.632;23.298;2023-04-01T04:58:11;7.00;;;3.70;;
13032;SDS011;6583;42.632;23.298;2023-04-01T05:00:38;10.20;;;4.20;;
13032;SDS011;6583;42.632;23.298;2023-04-01T05:03:04;8.03;;;4.10;;
13032;SDS011;6583;42.632;23.298;2023-04-01T05:05:31;7.40;;;3.70;;
13032;SDS011;6583;42.632;23.298;2023-04-01T05:07:58;8.60;;;4.23;;
13032;SDS011;6583;42.632;23.298;2023-04-01T05:10:25;9.37;;;4.73;;
13032;SDS011;6583;42.632;23.298;2023-04-01T05:12:53;6.10;;;4.70;;
13032;SDS011;6583;42.632;23.298;2023-04-01T05:15:19;8.20;;;4.87;;
13032;SDS011;6583;42.632;23.298;2023-04-01T05:17:47;7.40;;;4.77;;
13032;SDS011;6583;42.632;23.298;2023-04-01T05:20:13;9.70;;;5.50;;
13032;SDS011;6583;42.632;23.298;2023-04-01T05:22:41;5.63;;;4.20;;
13032;SDS011;6583;42.632;23.298;2023-04-01T05:25:07;7.90;;;4.10;;
13032;SDS011;6583;42.632;23.298;2023-04-01T05:27:35;9.93;;;3.67;;
13032;SDS011;6583;42.632;23.298;2023-04-01T05:30:03;5.73;;;2.93;;
13032;SDS011;6583;42.632;23.298;2023-04-01T05:32:30;6.17;;;3.00;;
13032;SDS011;6583;42.632;23.298;2023-04-01T05:34:57;6.80;;;3.37;;
13032;SDS011;6583;42.632;23.298;2023-04-01T05:37:24;5.50;;;3.67;;
13032;SDS011;6583;42.632;23.298;2023-04-01T05:39:51;6.47;;;4.50;;
13032;SDS011;6583;42.632;23.298;2023-04-01T05:42:17;7.77;;;3.97;;
13032;SDS011;6583;42.632;23.298;2023-04-01T05:44:44;8.70;;;5.00;;
13032;SDS011;6583;42.632;23.298;2023-04-01T05:47:12;9.40;;;5.57;;
13032;SDS011;6583;42.632;23.298;2023-04-01T05:49:39;9.30;;;6.27;;
13032;SDS011;6583;42.632;23.298;2023-04-01T05:52:05;11.27;;;6.33;;
13032;SDS011;6583;42.632;23.298;2023-04-01T05:54:32;10.80;;;5.93;;
13032;SDS011;6583;42.632;23.298;2023-04-01T05:56:59;9.77;;;6.63;;
13032;SDS011;6583;42.632;23.298;2023-04-01T05:59:26;8.73;;;6.50;;
13032;SDS011;6583;42.632;23.298;2023-04-01T06:01:52;10.80;;;6.83;;
13032;SDS011;6583;42.632;23.298;2023-04-01T06:04:20;9.63;;;6.80;;
13032;SDS011;6583;42.632;23.298;2023-04-01T06:06:47;9.97;;;7.00;;
13032;SDS011;6583;42.632;23.298;2023-04-01T06:09:15;10.47;;;6.77;;
13032;SDS011;6583;42.632;23.298;2023-04-01T06:11:47;11.53;;;6.77;;
13032;SDS011;6583;42.632;23.298;2023-04-01T06:14:30;10.83;;;6.93;;
13032;SDS011;6583;42.632;23.298;2023-04-01T06:17:07;12.40;;;7.10;;
13032;SDS011;6583;42.632;23.298;2023-04-01T06:19:49;8.67;;;5.97;;
13032;SDS011;6583;42.632;23.298;2023-04-01T06:22:46;10.03;;;6.30;;
13032;SDS011;6583;42.632;23.298;2023-04-01T06:25:33;8.97;;;5.77;;
13032;SDS011;6583;42.632;23.298;2023-04-01T06:31:24;9.67;;;5.83;;
13032;SDS011;6583;42.632;23.298;2023-04-01T06:34:12;9.97;;;5.13;;
13032;SDS011;6583;42.632;23.298;2023-04-01T06:36:57;8.93;;;5.27;;
13032;SDS011;6583;42.632;23.298;2023-04-01T06:39:49;7.47;;;4.50;;
13032;SDS011;6583;42.632;23.298;2023-04-01T06:42:41;8.83;;;5.10;;
13032;SDS011;6583;42.632;23.298;2023-04-01T06:45:27;8.00;;;4.77;;
13032;SDS011;6583;42.632;23.298;2023-04-01T06:48:04;7.60;;;5.07;;
13032;SDS011;6583;42.632;23.298;2023-04-01T06:50:47;10.73;;;5.30;;
13032;SDS011;6583;42.632;23.298;2023-04-01T06:53:25;6.67;;;4.03;;
13032;SDS011;6583;42.632;23.298;2023-04-01T06:56:02;7.30;;;4.90;;
13032;SDS011;6583;42.632;23.298;2023-04-01T06:58:34;9.00;;;4.60;;
13032;SDS011;6583;42.632;23.298;2023-04-01T07:01:04;7.30;;;4.40;;
13032;SDS011;6583;42.632;23.298;2023-04-01T07:03:35;5.93;;;4.50;;
13032;SDS011;6583;42.632;23.298;2023-04-01T07:06:06;8.37;;;4.57;;
13032;SDS011;6583;42.632;23.298;2023-04-01T07:08:39;9.10;;;4.40;;
13032;SDS011;6583;42.632;23.298;2023-04-01T07:11:10;6.10;;;4.27;;
13032;SDS011;6583;42.632;23.298;2023-04-01T07:13:52;9.13;;;4.63;;
13032;SDS011;6583;42.632;23.298;2023-04-01T07:16:23;6.33;;;3.67;;
13032;SDS011;6583;42.632;23.298;2023-04-01T07:18:57;9.30;;;4.37;;
13032;SDS011;6583;42.632;23.298;2023-04-01T07:21:29;9.40;;;4.70;;
13032;SDS011;6583;42.632;23.298;2023-04-01T07:24:05;7.13;;;4.47;;
13032;SDS011;6583;42.632;23.298;2023-04-01T07:26:36;7.00;;;4.53;;
13032;SDS011;6583;42.632;23.298;2023-04-01T07:29:04;7.90;;;4.70;;
13032;SDS011;6583;42.632;23.298;2023-04-01T07:34:39;11.57;;;5.43;;
13032;SDS011;6583;42.632;23.298;2023-04-01T07:37:17;8.40;;;5.83;;
13032;SDS011;6583;42.632;23.298;2023-04-01T07:39:51;9.60;;;6.00;;
13032;SDS011;6583;42.632;23.298;2023-04-01T07:42:30;8.00;;;5.77;;
13032;SDS011;6583;42.632;23.298;2023-04-01T07:45:08;9.90;;;5.43;;
13032;SDS011;6583;42.632;23.298;2023-04-01T07:47:46;8.17;;;4.10;;
13032;SDS011;6583;42.632;23.298;2023-04-01T07:50:25;9.07;;;5.00;;
13032;SDS011;6583;42.632;23.298;2023-04-01T07:52:56;7.37;;;5.03;;
13032;SDS011;6583;42.632;23.298;2023-04-01T07:55:35;9.33;;;5.13;;
13032;SDS011;6583;42.632;23.298;2023-04-01T07:58:10;6.30;;;2.50;;
13032;SDS011;6583;42.632;23.298;2023-04-01T08:00:47;5.50;;;2.50;;
13032;SDS011;6583;42.632;23.298;2023-04-01T08:03:26;6.23;;;1.90;;
13032;SDS011;6583;42.632;23.298;2023-04-01T08:06:03;2.57;;;1.73;;
13032;SDS011;6583;42.632;23.298;2023-04-01T08:08:41;6.97;;;1.70;;
13032;SDS011;6583;42.632;23.298;2023-04-01T08:11:20;2.67;;;1.60;;
13032;SDS011;6583;42.632;23.298;2023-04-01T08:13:58;6.07;;;1.60;;
13032;SDS011;6583;42.632;23.298;2023-04-01T08:16:35;6.93;;;1.73;;
13032;SDS011;6583;42.632;23.298;2023-04-01T08:19:09;5.10;;;1.57;;
13032;SDS011;6583;42.632;23.298;2023-04-01T08:21:47;4.13;;;1.60;;
13032;SDS011;6583;42.632;23.298;2023-04-01T08:24:20;3.23;;;1.40;;
13032;SDS011;6583;42.632;23.298;2023-04-01T08:26:53;4.73;;;1.50;;
13032;SDS011;6583;42.632;23.298;2023-04-01T08:29:23;7.70;;;1.73;;
13032;SDS011;6583;42.632;23.298;2023-04-01T08:32:01;5.53;;;1.63;;
13032;SDS011;6583;42.632;23.298;2023-04-01T08:34:36;4.07;;;1.77;;
13032;SDS011;6583;42.632;23.298;2023-04-01T08:37:04;4.20;;;1.47;;
13032;SDS011;6583;42.632;23.298;2023-04-01T08:39:34;5.03;;;1.70;;
13032;SDS011;6583;42.632;23.298;2023-04-01T08:42:09;5.43;;;1.30;;
13032;SDS011;6583;42.632;23.298;2023-04-01T08:45:02;3.97;;;1.73;;
13032;SDS011;6583;42.632;23.298;2023-04-01T08:47:54;7.03;;;3.50;;
13032;SDS011;6583;42.632;23.298;2023-04-01T08:50:45;8.30;;;4.05;;
13032;SDS011;6583;42.632;23.298;2023-04-01T08:53:27;9.98;;;4.65;;
13032;SDS011;6583;42.632;23.298;2023-04-01T08:56:12;7.50;;;4.43;;
13032;SDS011;6583;42.632;23.298;2023-04-01T08:59:04;12.10;;;4.40;;
13032;SDS011;6583;42.632;23.298;2023-04-01T09:01:53;8.68;;;3.50;;
13032;SDS011;6583;42.632;23.298;2023-04-01T09:04:33;5.43;;;3.08;;
13032;SDS011;6583;42.632;23.298;2023-04-01T09:07:13;10.75;;;4.53;;
13032;SDS011;6583;42.632;23.298;2023-04-01T09:13:20;5.37;;;2.67;;
13032;SDS011;6583;42.632;23.298;2023-04-01T09:16:08;7.18;;;3.75;;
13032;SDS011;6583;42.632;23.298;2023-04-01T09:18:46;6.55;;;3.47;;
13032;SDS011;6583;42.632;23.298;2023-04-01T09:21:32;9.57;;;3.58;;
13032;SDS011;6583;42.632;23.298;2023-04-01T09:24:14;8.13;;;3.83;;
13032;SDS011;6583;42.632;23.298;2023-04-01T09:27:05;6.20;;;3.50;;
13032;SDS011;6583;42.632;23.298;2023-04-01T09:29:44;7.18;;;3.80;;
13032;SDS011;6583;42.632;23.298;2023-04-01T09:35:38;7.57;;;3.35;;
13032;SDS011;6583;42.632;23.298;2023-04-01T09:38:18;5.70;;;3.22;;
13032;SDS011;6583;42.632;23.298;2023-04-01T09:40:49;5.05;;;1.85;;
13032;SDS011;6583;42.632;23.298;2023-04-01T09:43:22;7.07;;;2.30;;
13032;SDS011;6583;42.632;23.298;2023-04-01T09:45:55;5.25;;;2.70;;
13032;SDS011;6583;42.632;23.298;2023-04-01T09:48:53;3.88;;;2.33;;
13032;SDS011;6583;42.632;23.298;2023-04-01T09:51:40;8.10;;;3.10;;
13032;SDS011;6583;42.632;23.298;2023-04-01T09:54:30;10.13;;;2.83;;
13032;SDS011;6583;42.632;23.298;2023-04-01T09:57:10;7.97;;;3.20;;
13032;SDS011;6583;42.632;23.298;2023-04-01T10:09:27;4.30;;;1.88;;
13032;SDS011;6583;42.632;23.298;2023-04-01T10:12:29;3.90;;;1.80;;
13032;SDS011;6583;42.632;23.298;2023-04-01T10:15:26;4.28;;;2.13;;
13032;SDS011;6583;42.632;23.298;2023-04-01T10:18:27;4.13;;;1.80;;
13032;SDS011;6583;42.632;23.298;2023-04-01T10:21:23;6.82;;;2.38;;
13032;SDS011;6583;42.632;23.298;2023-04-01T10:24:35;6.55;;;1.77;;
13032;SDS011;6583;42.632;23.298;2023-04-01T10:27:33;6.32;;;1.80;;
13032;SDS011;6583;42.632;23.298;2023-04-01T10:30:17;4.13;;;1.80;;
13032;SDS011;6583;42.632;23.298;2023-04-01T10:48:13;5.25;;;1.65;;
13032;SDS011;6583;42.632;23.298;2023-04-01T10:53:54;4.45;;;2.28;;
13032;SDS011;6583;42.632;23.298;2023-04-01T10:56:50;5.22;;;1.95;;
13032;SDS011;6583;42.632;23.298;2023-04-01T10:59:28;5.55;;;1.60;;
13032;SDS011;6583;42.632;23.298;2023-04-01T11:02:22;6.57;;;1.70;;
13032;SDS011;6583;42.632;23.298;2023-04-01T11:05:23;3.28;;;1.80;;
13032;SDS011;6583;42.632;23.298;2023-04-01T11:08:25;4.82;;;1.73;;
13032;SDS011;6583;42.632;23.298;2023-04-01T11:17:24;5.25;;;1.70;;
13032;SDS011;6583;42.632;23.298;2023-04-01T11:20:07;4.60;;;1.90;;
13032;SDS011;6583;42.632;23.298;2023-04-01T11:22:52;12.43;;;8.63;;
13032;SDS011;6583;42.632;23.298;2023-04-01T11:25:41;4.03;;;1.80;;
13032;SDS011;6583;42.632;23.298;2023-04-01T11:28:35;5.90;;;2.20;;
13032;SDS011;6583;42.632;23.298;2023-04-01T11:31:35;4.97;;;2.10;;
13032;SDS011;6583;42.632;23.298;2023-04-01T11:34:13;6.40;;;1.87;;
13032;SDS011;6583;42.632;23.298;2023-04-01T11:36:55;5.23;;;2.00;;
13032;SDS011;6583;42.632;23.298;2023-04-01T11:39:32;4.93;;;1.77;;
13032;SDS011;6583;42.632;23.298;2023-04-01T11:42:08;4.20;;;2.10;;
13032;SDS011;6583;42.632;23.298;2023-04-01T11:44:43;6.97;;;2.17;;
13032;SDS011;6583;42.632;23.298;2023-04-01T11:47:24;8.33;;;2.50;;
13032;SDS011;6583;42.632;23.298;2023-04-01T11:50:12;6.93;;;2.60;;
13032;SDS011;6583;42.632;23.298;2023-04-01T11:52:55;6.90;;;2.80;;
13032;SDS011;6583;42.632;23.298;2023-04-01T11:55:46;6.93;;;3.30;;
13032;SDS011;6583;42.632;23.298;2023-04-01T11:58:31;7.80;;;2.60;;
13032;SDS011;6583;42.632;23.298;2023-04-01T12:01:17;6.20;;;3.00;;
13032;SDS011;6583;42.632;23.298;2023-04-01T12:03:54;7.03;;;2.97;;
13032;SDS011;6583;42.632;23.298;2023-04-01T12:06:34;7.00;;;3.10;;
13032;SDS011;6583;42.632;23.298;2023-04-01T12:09:09;4.77;;;2.87;;
13032;SDS011;6583;42.632;23.298;2023-04-01T12:11:48;4.43;;;2.93;;
13032;SDS011;6583;42.632;23.298;2023-04-01T12:14:22;3.73;;;3.07;;
13032;SDS011;6583;42.632;23.298;2023-04-01T12:16:59;5.17;;;3.30;;
13032;SDS011;6583;42.632;23.298;2023-04-01T12:19:36;4.93;;;3.27;;
13032;SDS011;6583;42.632;23.298;2023-04-01T12:22:21;5.23;;;3.70;;
13032;SDS011;6583;42.632;23.298;2023-04-01T12:24:56;6.07;;;4.00;;
13032;SDS011;6583;42.632;23.298;2023-04-01T12:27:37;4.00;;;3.60;;
13032;SDS011;6583;42.632;23.298;2023-04-01T12:33:15;5.00;;;3.70;;
13032;SDS011;6583;42.632;23.298;2023-04-01T12:35:55;5.43;;;2.90;;
13032;SDS011;6583;42.632;23.298;2023-04-01T12:38:36;3.47;;;2.40;;
13032;SDS011;6583;42.632;23.298;2023-04-01T12:41:14;3.57;;;2.40;;
13032;SDS011;6583;42.632;23.298;2023-04-01T12:46:50;2.93;;;2.30;;
13032;SDS011;6583;42.632;23.298;2023-04-01T12:49:34;3.70;;;2.50;;
13032;SDS011;6583;42.632;23.298;2023-04-01T12:52:17;2.90;;;2.70;;
13032;SDS011;6583;42.632;23.298;2023-04-01T13:01:10;4.37;;;2.60;;
13032;SDS011;6583;42.632;23.298;2023-04-01T13:04:03;4.23;;;2.10;;
13032;SDS011;6583;42.632;23.298;2023-04-01T13:06:49;3.80;;;2.50;;
13032;SDS011;6583;42.632;23.298;2023-04-01T13:09:27;4.00;;;2.40;;
13032;SDS011;6583;42.632;23.298;2023-04-01T13:12:09;3.03;;;1.57;;
13032;SDS011;6583;42.632;23.298;2023-04-01T13:15:03;2.10;;;1.70;;
13032;SDS011;6583;42.632;23.298;2023-04-01T13:17:42;1.77;;;0.90;;
13032;SDS011;6583;42.632;23.298;2023-04-01T13:20:19;0.97;;;0.97;;
13032;SDS011;6583;42.632;23.298;2023-04-01T13:22:58;0.80;;;0.80;;
13032;SDS011;6583;42.632;23.298;2023-04-01T13:25:36;1.33;;;0.80;;
13032;SDS011;6583;42.632;23.298;2023-04-01T13:28:12;1.77;;;1.00;;
13032;SDS011;6583;42.632;23.298;2023-04-01T13:30:44;0.90;;;0.70;;
13032;SDS011;6583;42.632;23.298;2023-04-01T13:33:24;1.83;;;0.97;;
13032;SDS011;6583;42.632;23.298;2023-04-01T13:36:00;1.70;;;1.00;;
13032;SDS011;6583;42.632;23.298;2023-04-01T13:38:47;2.37;;;1.20;;
13032;SDS011;6583;42.632;23.298;2023-04-01T13:41:25;1.97;;;1.20;;
13032;SDS011;6583;42.632;23.298;2023-04-01T13:44:09;1.60;;;1.27;;
13032;SDS011;6583;42.632;23.298;2023-04-01T13:49:49;1.30;;;1.20;;
13032;SDS011;6583;42.632;23.298;2023-04-01T13:52:50;1.97;;;1.40;;
13032;SDS011;6583;42.632;23.298;2023-04-01T13:55:39;2.10;;;1.07;;
13032;SDS011;6583;42.632;23.298;2023-04-01T14:01:27;2.33;;;1.27;;
13032;SDS011;6583;42.632;23.298;2023-04-01T14:07:07;2.03;;;1.30;;
13032;SDS011;6583;42.632;23.298;2023-04-01T14:09:44;1.90;;;1.30;;
13032;SDS011;6583;42.632;23.298;2023-04-01T14:12:21;1.97;;;1.30;;
13032;SDS011;6583;42.632;23.298;2023-04-01T14:15:07;2.40;;;1.47;;
13032;SDS011;6583;42.632;23.298;2023-04-01T14:17:59;1.20;;;1.10;;
13032;SDS011;6583;42.632;23.298;2023-04-01T14:20:45;1.73;;;1.20;;
13032;SDS011;6583;42.632;23.298;2023-04-01T14:23:33;1.47;;;1.20;;
13032;SDS011;6583;42.632;23.298;2023-04-01T14:26:30;1.60;;;1.00;;
13032;SDS011;6583;42.632;23.298;2023-04-01T14:29:18;2.33;;;1.40;;
13032;SDS011;6583;42.632;23.298;2023-04-01T14:31:59;1.70;;;1.17;;
13032;SDS011;6583;42.632;23.298;2023-04-01T14:34:37;2.93;;;1.37;;
13032;SDS011;6583;42.632;23.298;2023-04-01T14:37:15;1.30;;;1.00;;
13032;SDS011;6583;42.632;23.298;2023-04-01T14:40:03;1.33;;;1.07;;
13032;SDS011;6583;42.632;23.298;2023-04-01T14:42:49;2.13;;;1.20;;
13032;SDS011;6583;42.632;23.298;2023-04-01T14:45:52;2.23;;;1.10;;
13032;SDS011;6583;42.632;23.298;2023-04-01T14:48:32;1.60;;;1.10;;
13032;SDS011;6583;42.632;23.298;2023-04-01T14:51:03;1.93;;;0.90;;
13032;SDS011;6583;42.632;23.298;2023-04-01T14:53:37;2.47;;;1.07;;
13032;SDS011;6583;42.632;23.298;2023-04-01T14:56:11;1.20;;;1.00;;
13032;SDS011;6583;42.632;23.298;2023-04-01T14:58:40;1.43;;;1.00;;
13032;SDS011;6583;42.632;23.298;2023-04-01T15:01:19;3.63;;;1.60;;
13032;SDS011;6583;42.632;23.298;2023-04-01T15:03:57;2.30;;;1.40;;
13032;SDS011;6583;42.632;23.298;2023-04-01T15:06:45;3.27;;;2.10;;
13032;SDS011;6583;42.632;23.298;2023-04-01T15:09:28;3.73;;;2.80;;
13032;SDS011;6583;42.632;23.298;2023-04-01T15:12:10;1.80;;;1.30;;
13032;SDS011;6583;42.632;23.298;2023-04-01T15:14:51;2.57;;;1.90;;
13032;SDS011;6583;42.632;23.298;2023-04-01T15:17:41;3.20;;;2.00;;
13032;SDS011;6583;42.632;23.298;2023-04-01T15:20:28;2.93;;;1.50;;
13032;SDS011;6583;42.632;23.298;2023-04-01T15:23:11;2.07;;;1.33;;
13032;SDS011;6583;42.632;23.298;2023-04-01T15:28:47;1.50;;;1.40;;
13032;SDS011;6583;42.632;23.298;2023-04-01T15:31:24;1.70;;;1.27;;
13032;SDS011;6583;42.632;23.298;2023-04-01T15:34:00;3.00;;;1.33;;
13032;SDS011;6583;42.632;23.298;2023-04-01T15:36:39;1.73;;;1.30;;
13032;SDS011;6583;42.632;23.298;2023-04-01T15:39:13;2.20;;;1.50;;
13032;SDS011;6583;42.632;23.298;2023-04-01T15:41:43;3.63;;;1.60;;
13032;SDS011;6583;42.632;23.298;2023-04-01T15:44:44;1.60;;;1.50;;
13032;SDS011;6583;42.632;23.298;2023-04-01T15:47:32;2.30;;;1.53;;
13032;SDS011;6583;42.632;23.298;2023-04-01T15:50:21;2.23;;;1.60;;
13032;SDS011;6583;42.632;23.298;2023-04-01T15:53:21;2.00;;;1.13;;
13032;SDS011;6583;42.632;23.298;2023-04-01T15:56:09;0.90;;;0.70;;
13032;SDS011;6583;42.632;23.298;2023-04-01T15:58:46;1.00;;;0.90;;
13032;SDS011;6583;42.632;23.298;2023-04-01T16:01:25;1.37;;;0.90;;
13032;SDS011;6583;42.632;23.298;2023-04-01T16:04:05;2.50;;;1.13;;
13032;SDS011;6583;42.632;23.298;2023-04-01T16:06:55;5.03;;;1.83;;
13032;SDS011;6583;42.632;23.298;2023-04-01T16:09:38;3.03;;;1.37;;
13032;SDS011;6583;42.632;23.298;2023-04-01T16:12:15;1.43;;;1.10;;
13032;SDS011;6583;42.632;23.298;2023-04-01T16:14:47;1.27;;;0.90;;
13032;SDS011;6583;42.632;23.298;2023-04-01T16:17:28;0.80;;;0.80;;
13032;SDS011;6583;42.632;23.298;2023-04-01T16:20:12;1.40;;;1.00;;
13032;SDS011;6583;42.632;23.298;2023-04-01T16:22:45;1.67;;;0.97;;
13032;SDS011;6583;42.632;23.298;2023-04-01T16:25:32;1.07;;;0.93;;
13032;SDS011;6583;42.632;23.298;2023-04-01T16:28:13;1.77;;;1.20;;
13032;SDS011;6583;42.632;23.298;2023-04-01T16:30:47;1.17;;;1.07;;
13032;SDS011;6583;42.632;23.298;2023-04-01T16:33:20;1.20;;;1.10;;
13032;SDS011;6583;42.632;23.298;2023-04-01T16:35:53;1.33;;;0.90;;
13032;SDS011;6583;42.632;23.298;2023-04-01T16:38:25;0.97;;;0.90;;
13032;SDS011;6583;42.632;23.298;2023-04-01T16:41:03;2.13;;;1.30;;
13032;SDS011;6583;42.632;23.298;2023-04-01T16:43:38;1.67;;;0.90;;
13032;SDS011;6583;42.632;23.298;2023-04-01T16:49:04;0.60;;;0.60;;
13032;SDS011;6583;42.632;23.298;2023-04-01T16:51:46;0.70;;;0.70;;
13032;SDS011;6583;42.632;23.298;2023-04-01T16:54:17;0.70;;;0.60;;
13032;SDS011;6583;42.632;23.298;2023-04-01T16:56:54;0.70;;;0.70;;